Time;durP1;ratioP1;P1;durP2;ratioP2;P2;SDS_P1;SDS_P2;PMS_P1;PMS_P2;Temp;Humidity;BMP_temperature;BMP_pressure;BME280_temperature;BME280_humidity;BME280_pressure;Samples;Min_cycle;Max_cycle;Signal;HPM_P1;HPM_P2
2023/03/21 00:01:22;;;;;;;34.75;19.45;;;;;;;8.48;75.71;100178.09;30627314;28;96645;-61
2023/03/21 00:16:22;;;;;;;38.33;19.45;;;;;;;8.44;76.33;100167.72;30626610;28;96614;-62
2023/03/21 00:31:23;;;;;;;38.95;21.10;;;;;;;8.35;76.48;100155.41;30625232;28;96895;-62
2023/03/21 00:46:23;;;;;;;40.30;21.23;;;;;;;8.31;77.14;100138.16;30622500;28;96755;-62
2023/03/21 01:01:25;;;;;;;38.10;21.52;;;;;;;8.30;78.21;100134.63;30621818;28;96668;-61
2023/03/21 01:16:26;;;;;;;30.60;17.50;;;;;;;8.50;78.73;100146.88;30620664;28;97116;-62
2023/03/21 01:31:26;;;;;;;26.05;12.82;;;;;;;8.63;77.93;100128.72;30619311;28;96718;-64
2023/03/21 01:46:39;;;;;;;20.98;12.43;;;;;;;8.62;77.44;100114.63;30617960;28;96659;-61
2023/03/21 02:01:41;;;;;;;19.33;11.30;;;;;;;8.54;76.80;100119.84;30617026;28;96739;-61
2023/03/21 02:16:54;;;;;;;18.47;11.23;;;;;;;8.32;76.82;100134.47;30615509;28;97121;-63
2023/03/21 02:32:11;;;;;;;22.43;12.40;;;;;;;8.26;77.36;100143.09;30612650;28;96635;-62
2023/03/21 02:47:37;;;;;;;25.33;13.47;;;;;;;8.34;77.35;100132.50;30611878;28;96789;-62
2023/03/21 03:02:39;;;;;;;28.53;13.97;;;;;;;8.37;77.81;100131.38;30613686;28;97066;-62
2023/03/21 03:17:47;;;;;;;29.40;15.17;;;;;;;8.41;77.55;100133.53;30649887;28;97256;-62
2023/03/21 03:32:54;;;;;;;29.03;16.03;;;;;;;8.32;77.63;100133.66;30649063;28;96741;-62
2023/03/21 03:48:13;;;;;;;31.97;15.93;;;;;;;8.31;77.74;100140.81;30647162;28;96666;-62
2023/03/21 04:03:14;;;;;;;27.60;15.57;;;;;;;8.32;77.95;100153.06;30646238;28;97426;-62
2023/03/21 04:18:15;;;;;;;25.67;14.30;;;;;;;8.34;78.03;100153.75;30637192;28;97061;-61
2023/03/21 04:33:15;;;;;;;34.70;15.60;;;;;;;8.34;78.03;100153.75;30622404;28;96960;-62
2023/03/21 04:48:18;;;;;;;31.00;16.77;;;;;;;8.30;77.99;100168.31;30619472;28;97581;-64
2023/03/21 05:03:20;;;;;;;30.57;15.60;;;;;;;8.32;78.65;100161.03;30619376;28;96657;-62
2023/03/21 05:18:23;;;;;;;34.20;16.40;;;;;;;8.38;78.48;100165.72;30616517;28;97619;-63
2023/03/21 05:33:24;;;;;;;34.73;17.67;;;;;;;8.50;78.17;100184.88;30618262;28;97755;-65
2023/03/21 05:48:24;;;;;;;33.42;16.80;;;;;;;8.66;78.47;100186.81;30615982;28;97185;-64
2023/03/21 06:03:24;;;;;;;35.05;16.42;;;;;;;8.83;78.04;100197.50;30613954;28;96686;-66
2023/03/21 06:18:26;;;;;;;29.10;16.55;;;;;;;8.87;78.30;100197.06;30613621;28;97320;-66
2023/03/21 06:33:27;;;;;;;31.43;17.03;;;;;;;9.02;77.61;100209.72;30611532;28;96739;-62
2023/03/21 06:48:27;;;;;;;27.88;14.38;;;;;;;9.32;77.30;100225.13;30609527;28;97182;-64
2023/03/21 07:03:28;;;;;;;25.95;15.55;;;;;;;9.55;77.01;100229.84;30609016;28;97348;-66
2023/03/21 07:18:29;;;;;;;25.58;13.82;;;;;;;9.51;76.38;100247.09;30608628;28;97241;-65
2023/03/21 07:33:31;;;;;;;21.80;11.07;;;;;;;9.48;76.10;100250.91;30606705;28;96816;-65
2023/03/21 07:48:32;;;;;;;30.20;14.17;;;;;;;9.16;75.57;100254.31;30604453;28;96761;-63
2023/03/21 08:03:33;;;;;;;23.07;13.67;;;;;;;8.90;75.32;100264.94;30623718;28;96843;-65
2023/03/21 08:18:33;;;;;;;27.08;14.57;;;;;;;8.85;76.03;100264.63;30624027;28;96740;-66
2023/03/21 08:33:34;;;;;;;24.75;13.82;;;;;;;9.29;76.43;100280.44;30638654;28;96675;-64
2023/03/21 08:48:37;;;;;;;23.48;12.18;;;;;;;10.20;75.50;100284.16;30621324;28;96682;-66
2023/03/21 09:03:37;;;;;;;18.83;11.77;;;;;;;11.03;74.20;100298.28;30619878;28;96922;-65
2023/03/21 09:18:45;;;;;;;20.15;12.27;;;;;;;11.32;73.16;100303.00;30619672;28;96906;-64
2023/03/21 09:33:46;;;;;;;20.67;12.27;;;;;;;12.04;71.83;100301.16;30618509;28;96763;-63
2023/03/21 09:48:56;;;;;;;21.33;12.57;;;;;;;13.16;70.13;100297.00;30617381;28;96752;-65
2023/03/21 10:03:59;;;;;;;17.00;12.57;;;;;;;13.96;66.56;100289.16;30615621;28;97339;-67
2023/03/21 10:19:06;;;;;;;21.47;14.93;;;;;;;13.62;63.43;100285.28;30611444;28;97452;-66
2023/03/21 10:34:16;;;;;;;25.37;13.50;;;;;;;16.51;61.83;100284.13;30625759;28;97628;-64
2023/03/21 10:49:18;;;;;;;20.90;14.07;;;;;;;20.41;54.80;100288.19;30611310;28;98101;-67
2023/03/21 11:04:22;;;;;;;18.83;14.10;;;;;;;17.63;49.24;100295.91;30597761;28;96959;-64
2023/03/21 11:19:32;;;;;;;28.30;14.80;;;;;;;15.92;52.41;100274.16;30594575;28;96871;-70
2023/03/21 11:34:38;;;;;;;30.00;16.73;;;;;;;14.42;50.44;100267.34;30622131;28;96944;-71
2023/03/21 11:49:38;;;;;;;23.30;16.67;;;;;;;13.64;52.97;100259.13;30628409;28;96947;-70
2023/03/21 12:05:03;;;;;;;24.13;16.88;;;;;;;13.07;53.29;100256.16;30628222;28;96703;-68
2023/03/21 12:20:28;;;;;;;26.80;16.17;;;;;;;13.69;53.19;100232.63;30721919;28;96879;-69
2023/03/21 12:36:05;;;;;;;23.77;16.87;;;;;;;14.52;52.10;100226.78;30747598;28;97364;-64
2023/03/21 12:51:11;;;;;;;21.07;15.20;;;;;;;15.81;49.84;100206.53;30742461;28;96812;-64
2023/03/21 13:06:16;;;;;;;24.47;15.97;;;;;;;17.33;46.59;100192.28;30637974;28;96734;-67
2023/03/21 13:21:32;;;;;;;22.07;14.17;;;;;;;22.50;40.01;100177.91;30616587;28;97968;-66
2023/03/21 13:36:36;;;;;;;23.27;15.67;;;;;;;22.59;36.40;100167.44;30679529;28;97556;-66
2023/03/21 13:51:41;;;;;;;22.97;17.10;;;;;;;20.70;35.42;100158.41;30609380;28;96711;-63
2023/03/21 14:06:56;;;;;;;19.47;14.80;;;;;;;17.85;38.77;100154.44;30600142;28;97115;-66
2023/03/21 14:21:57;;;;;;;14.70;9.30;;;;;;;15.92;41.83;100145.19;30605360;28;97248;-65
2023/03/21 14:36:58;;;;;;;18.13;11.40;;;;;;;14.84;43.12;100134.19;30608754;28;96787;-66
2023/03/21 14:52:02;;;;;;;21.85;13.75;;;;;;;13.86;45.44;100121.59;30600647;28;97401;-66
2023/03/21 15:07:04;;;;;;;22.27;13.00;;;;;;;13.22;47.00;100111.69;30600138;28;97264;-62
2023/03/21 15:22:21;;;;;;;21.30;13.13;;;;;;;12.90;48.20;100110.28;30602267;28;96677;-63
2023/03/21 15:37:25;;;;;;;25.07;14.27;;;;;;;12.58;49.45;100107.84;30594345;28;97076;-63
2023/03/21 15:52:26;;;;;;;25.83;15.20;;;;;;;11.77;50.95;100099.63;30602630;28;97556;-63
2023/03/21 16:07:27;;;;;;;24.77;14.90;;;;;;;11.44;52.39;100105.22;30603679;28;97407;-63
2023/03/21 16:22:29;;;;;;;21.67;13.85;;;;;;;11.19;53.85;100100.06;30621272;28;96829;-62
2023/03/21 16:37:29;;;;;;;25.00;15.83;;;;;;;10.96;54.43;100103.53;30620843;28;97540;-62
2023/03/21 16:52:30;;;;;;;26.42;15.43;;;;;;;10.76;55.87;100105.81;30618844;28;96925;-62
2023/03/21 17:07:30;;;;;;;27.25;15.90;;;;;;;10.52;56.24;100117.38;30617062;28;97440;-64
2023/03/21 17:22:30;;;;;;;25.70;15.57;;;;;;;10.36;56.80;100115.63;30614500;28;97067;-68
2023/03/21 17:37:31;;;;;;;25.17;16.25;;;;;;;10.22;57.87;100089.66;30608681;28;97626;-64
2023/03/21 17:52:31;;;;;;;31.10;17.55;;;;;;;10.09;58.25;100117.63;30605599;28;97137;-63
2023/03/21 18:07:33;;;;;;;40.00;21.13;;;;;;;9.81;61.20;100120.66;30601675;28;97070;-66
2023/03/21 18:22:33;;;;;;;33.97;20.83;;;;;;;9.70;63.50;100126.28;30624679;28;97582;-66
2023/03/21 18:37:34;;;;;;;37.85;21.42;;;;;;;9.70;64.45;100120.97;30609842;28;97632;-66
2023/03/21 18:52:35;;;;;;;43.92;23.27;;;;;;;9.60;65.72;100123.78;30609213;28;97314;-64
2023/03/21 19:07:35;;;;;;;46.67;25.08;;;;;;;9.46;66.45;100111.16;30608870;28;96640;-64
2023/03/21 19:22:35;;;;;;;44.97;26.75;;;;;;;9.42;67.39;100110.66;30607364;28;97302;-64
2023/03/21 19:37:36;;;;;;;44.30;23.80;;;;;;;9.40;67.78;100109.16;30603110;28;96887;-64
2023/03/21 19:52:36;;;;;;;47.88;25.13;;;;;;;9.44;68.17;100094.53;30619494;28;96805;-65
2023/03/21 20:07:37;;;;;;;39.28;23.63;;;;;;;9.45;68.41;100099.69;30626506;28;97521;-64
2023/03/21 20:22:38;;;;;;;51.10;25.77;;;;;;;9.38;68.70;100082.75;30625931;28;97611;-65
2023/03/21 20:37:40;;;;;;;45.42;23.17;;;;;;;8.61;69.23;100075.75;30623508;28;96802;-64
2023/03/21 20:52:41;;;;;;;40.40;23.30;;;;;;;8.41;70.73;100069.84;30621837;28;97465;-67
2023/03/21 21:07:42;;;;;;;37.90;20.83;;;;;;;8.29;71.67;100065.78;30619177;28;96671;-66
2023/03/21 21:22:47;;;;;;;43.57;24.50;;;;;;;8.42;72.02;100044.97;30618656;28;96672;-67
2023/03/21 21:37:49;;;;;;;37.17;21.67;;;;;;;8.42;72.34;100038.78;30619512;28;97459;-65
2023/03/21 21:52:51;;;;;;;36.50;19.33;;;;;;;8.46;73.01;100048.13;30613473;28;97211;-66
2023/03/21 22:07:53;;;;;;;34.40;19.43;;;;;;;8.48;73.00;100042.69;30614077;28;96841;-66
2023/03/21 22:22:55;;;;;;;32.93;20.13;;;;;;;8.46;73.36;100040.16;30614209;28;96639;-65
2023/03/21 22:37:56;;;;;;;33.07;20.93;;;;;;;8.45;73.38;100022.59;30612263;28;97246;-65
2023/03/21 22:52:56;;;;;;;27.42;15.80;;;;;;;8.41;73.89;100019.41;30608197;28;97073;-66
2023/03/21 23:07:56;;;;;;;32.53;17.67;;;;;;;8.37;73.61;100019.88;30609072;28;97128;-65
2023/03/21 23:22:57;;;;;;;30.17;16.38;;;;;;;8.32;74.50;100001.78;30614030;28;97126;-66
2023/03/21 23:37:57;;;;;;;30.90;19.02;;;;;;;8.23;74.15;99997.41;30629596;28;98022;-65
2023/03/21 23:52:58;;;;;;;39.40;18.55;;;;;;;8.18;75.00;100003.22;30626848;28;97377;-66
